Time;durP1;ratioP1;P1;durP2;ratioP2;P2;SDS_P1;SDS_P2;PMS_P1;PMS_P2;Temp;Humidity;BMP_temperature;BMP_pressure;BME280_temperature;BME280_humidity;BME280_pressure;Samples;Min_cycle;Max_cycle;Signal;HPM_P1;HPM_P2
2022/03/26 00:00:32;;;;;;;42.20;23.33;;;5.20;99.90;;;;;;5041005;28;20416;-74
2022/03/26 00:02:58;;;;;;;42.63;21.10;;;5.20;99.90;;;;;;5030265;28;20548;-74
2022/03/26 00:05:24;;;;;;;39.17;21.33;;;5.20;99.90;;;;;;5030578;28;20312;-74
2022/03/26 00:07:49;;;;;;;36.27;20.80;;;5.20;99.90;;;;;;5029974;28;20188;-74
2022/03/26 00:10:15;;;;;;;38.67;21.90;;;5.10;99.90;;;;;;5030206;28;20209;-74
2022/03/26 00:12:41;;;;;;;54.80;22.20;;;5.10;99.90;;;;;;5028962;28;20336;-74
2022/03/26 00:15:08;;;;;;;39.20;21.50;;;5.10;99.90;;;;;;5030325;28;20492;-74
2022/03/26 00:17:34;;;;;;;41.37;21.60;;;5.10;99.90;;;;;;5031044;28;20894;-74
2022/03/26 00:20:00;;;;;;;44.17;22.13;;;5.10;99.90;;;;;;5034578;28;20917;-74
2022/03/26 00:22:26;;;;;;;47.20;21.40;;;5.00;99.90;;;;;;5028476;28;20451;-73
2022/03/26 00:24:51;;;;;;;49.33;21.83;;;5.00;99.90;;;;;;5029790;28;20191;-73
2022/03/26 00:27:17;;;;;;;36.83;22.40;;;4.90;99.90;;;;;;5029276;28;20184;-74
2022/03/26 00:29:43;;;;;;;37.23;21.07;;;4.90;99.90;;;;;;5029041;28;20219;-74
2022/03/26 00:32:09;;;;;;;37.93;21.40;;;4.90;99.90;;;;;;5028666;28;20957;-74
2022/03/26 00:34:35;;;;;;;37.27;21.70;;;4.90;99.90;;;;;;5029791;28;20172;-74
2022/03/26 00:37:00;;;;;;;45.00;22.20;;;4.90;99.90;;;;;;5030735;28;20434;-74
2022/03/26 00:39:26;;;;;;;36.93;21.17;;;4.80;99.90;;;;;;5027449;28;20291;-73
2022/03/26 00:41:52;;;;;;;40.10;22.30;;;4.70;99.90;;;;;;5027378;28;20655;-74
2022/03/26 00:44:18;;;;;;;37.93;22.13;;;4.70;99.90;;;;;;5037126;28;20839;-74
2022/03/26 00:46:47;;;;;;;41.53;22.73;;;4.60;99.90;;;;;;5040402;28;20191;-74
2022/03/26 00:49:14;;;;;;;50.57;22.87;;;4.60;99.90;;;;;;5032494;28;20241;-75
2022/03/26 00:51:40;;;;;;;42.03;21.57;;;4.60;99.90;;;;;;5028931;28;20434;-74
2022/03/26 00:54:08;;;;;;;54.37;23.23;;;4.60;99.90;;;;;;5028342;28;20444;-74
2022/03/26 00:56:35;;;;;;;40.57;22.50;;;4.60;99.90;;;;;;5029082;28;20787;-74
2022/03/26 00:59:00;;;;;;;41.63;23.60;;;4.60;99.90;;;;;;5029737;28;20507;-74
2022/03/26 01:01:26;;;;;;;44.93;22.50;;;4.50;99.90;;;;;;5028315;28;20527;-74
2022/03/26 01:03:52;;;;;;;40.10;23.40;;;4.50;99.90;;;;;;5028623;28;20181;-74
2022/03/26 01:06:18;;;;;;;39.83;22.00;;;4.50;99.90;;;;;;5028816;28;20190;-74
2022/03/26 01:08:45;;;;;;;44.40;24.10;;;4.40;99.90;;;;;;5028682;28;20243;-74
2022/03/26 01:11:10;;;;;;;43.23;22.53;;;4.40;99.90;;;;;;5027891;28;20432;-74
2022/03/26 01:13:38;;;;;;;42.83;23.53;;;4.40;99.90;;;;;;5029054;28;20422;-74
2022/03/26 01:16:05;;;;;;;46.23;22.20;;;4.40;99.90;;;;;;5030029;28;20282;-73
2022/03/26 01:18:31;;;;;;;40.40;22.93;;;4.40;99.90;;;;;;5028657;28;20427;-74
2022/03/26 01:20:56;;;;;;;45.13;21.80;;;4.40;99.90;;;;;;5029514;28;20918;-74
2022/03/26 01:23:22;;;;;;;44.63;22.00;;;4.30;99.90;;;;;;5027440;28;20461;-73
2022/03/26 01:25:48;;;;;;;39.93;23.97;;;4.40;99.90;;;;;;5028287;28;20195;-74
2022/03/26 01:28:14;;;;;;;48.90;23.67;;;4.40;99.90;;;;;;5025754;28;20446;-74
2022/03/26 01:30:40;;;;;;;44.93;22.90;;;4.30;99.90;;;;;;5028181;28;20564;-74
2022/03/26 01:33:06;;;;;;;42.27;24.10;;;4.20;99.90;;;;;;5024955;28;20850;-74
2022/03/26 01:35:32;;;;;;;42.73;22.30;;;4.20;99.90;;;;;;5019317;28;20470;-74
2022/03/26 01:38:01;;;;;;;44.00;23.83;;;4.20;99.90;;;;;;5025359;28;20193;-74
2022/03/26 01:40:27;;;;;;;43.70;24.43;;;4.20;99.90;;;;;;5024648;28;20195;-74
2022/03/26 01:42:53;;;;;;;47.77;24.37;;;4.10;99.90;;;;;;5024644;28;20959;-74
2022/03/26 01:45:19;;;;;;;40.30;21.40;;;4.10;99.90;;;;;;5025177;28;20530;-74
2022/03/26 01:47:45;;;;;;;43.70;23.43;;;4.00;99.90;;;;;;5012712;28;20509;-74
2022/03/26 01:50:10;;;;;;;38.47;22.30;;;4.00;99.90;;;;;;5010263;28;20219;-74
2022/03/26 01:52:36;;;;;;;46.90;23.70;;;4.00;99.90;;;;;;5032882;28;20201;-74
2022/03/26 01:55:01;;;;;;;44.07;23.10;;;3.90;99.90;;;;;;5031806;28;20662;-73
2022/03/26 01:57:28;;;;;;;33.60;20.27;;;3.90;99.90;;;;;;5022148;28;20203;-74
2022/03/26 01:59:55;;;;;;;43.77;22.30;;;3.90;99.90;;;;;;5032086;28;20274;-73
2022/03/26 03:32:58;;;;;;;39.33;20.70;;;2.90;99.90;;;;;;5131658;22;20492;-76
2022/03/26 03:35:23;;;;;;;46.73;22.87;;;2.80;99.90;;;;;;5037357;28;20772;-74
2022/03/26 03:37:49;;;;;;;44.60;24.40;;;2.80;99.90;;;;;;5032490;28;20650;-76
2022/03/26 03:40:15;;;;;;;42.93;23.37;;;2.80;99.90;;;;;;5030679;28;20558;-77
2022/03/26 03:42:41;;;;;;;41.83;22.20;;;2.70;99.90;;;;;;5014913;28;20216;-76
2022/03/26 03:45:09;;;;;;;41.30;22.43;;;2.80;99.90;;;;;;5011518;28;20201;-75
2022/03/26 03:47:34;;;;;;;39.00;21.80;;;2.70;99.90;;;;;;5009002;28;20191;-76
2022/03/26 03:50:00;;;;;;;44.90;22.33;;;2.70;99.90;;;;;;5012022;28;20919;-77
2022/03/26 03:52:26;;;;;;;46.47;22.07;;;2.70;99.90;;;;;;5010915;28;20467;-76
2022/03/26 03:54:51;;;;;;;38.90;21.40;;;2.70;99.90;;;;;;5012225;28;20182;-76
2022/03/26 03:57:17;;;;;;;41.17;22.13;;;2.60;99.90;;;;;;4998953;28;20176;-76
2022/03/26 03:59:42;;;;;;;42.90;22.70;;;2.60;99.90;;;;;;4992850;28;20175;-76
2022/03/26 04:02:11;;;;;;;46.03;24.60;;;2.60;99.90;;;;;;4998489;28;20210;-76
2022/03/26 04:04:38;;;;;;;39.27;21.80;;;2.50;99.90;;;;;;4993027;28;20189;-76
2022/03/26 04:07:05;;;;;;;51.83;23.93;;;2.50;99.90;;;;;;4992734;28;20815;-74
2022/03/26 04:09:30;;;;;;;44.17;21.70;;;2.50;99.90;;;;;;4992595;28;20495;-76
2022/03/26 04:11:56;;;;;;;48.27;24.40;;;2.40;99.90;;;;;;4995182;28;20551;-77
2022/03/26 04:14:21;;;;;;;46.50;23.60;;;2.40;99.90;;;;;;5009940;28;20187;-74
2022/03/26 04:16:47;;;;;;;41.27;20.93;;;2.30;99.90;;;;;;5009131;28;20280;-75
2022/03/26 04:19:13;;;;;;;48.13;24.00;;;2.30;99.90;;;;;;5011615;28;20540;-74
2022/03/26 04:21:38;;;;;;;33.93;19.93;;;2.30;99.90;;;;;;5012002;28;20442;-76
2022/03/26 04:24:04;;;;;;;41.60;23.10;;;2.30;99.90;;;;;;4998263;28;20246;-74
2022/03/26 04:26:30;;;;;;;39.53;20.30;;;2.30;99.90;;;;;;5012126;28;20624;-76
2022/03/26 04:28:56;;;;;;;42.13;22.50;;;2.30;99.90;;;;;;5008565;28;20477;-76
2022/03/26 04:31:21;;;;;;;46.93;22.90;;;2.30;99.90;;;;;;5008688;28;20686;-73
2022/03/26 04:33:47;;;;;;;46.47;22.30;;;2.30;99.90;;;;;;4999148;28;20226;-76
2022/03/26 04:36:13;;;;;;;42.87;21.77;;;2.30;99.90;;;;;;5011859;28;20613;-76
2022/03/26 04:38:39;;;;;;;39.27;20.60;;;2.20;99.90;;;;;;5011567;28;20180;-76
2022/03/26 04:41:05;;;;;;;39.83;21.43;;;2.20;99.90;;;;;;4994038;28;20460;-75
2022/03/26 04:43:30;;;;;;;42.70;21.80;;;2.10;99.90;;;;;;4991675;28;20419;-75
2022/03/26 04:45:56;;;;;;;45.57;22.10;;;2.10;99.90;;;;;;4996012;28;20188;-75
2022/03/26 04:48:21;;;;;;;42.93;22.93;;;2.10;99.90;;;;;;4992453;28;20409;-73
2022/03/26 04:50:47;;;;;;;37.83;22.23;;;2.10;99.90;;;;;;4992653;28;20216;-76
2022/03/26 04:53:13;;;;;;;47.00;21.00;;;2.10;99.90;;;;;;4991574;28;20187;-76
2022/03/26 04:55:39;;;;;;;41.33;21.40;;;2.10;99.90;;;;;;4999817;28;20175;-76
2022/03/26 04:58:04;;;;;;;39.83;21.77;;;2.00;99.90;;;;;;5011313;28;20815;-76
2022/03/26 05:00:30;;;;;;;43.17;23.03;;;2.00;99.90;;;;;;5009857;28;20188;-76
2022/03/26 05:02:55;;;;;;;40.20;22.07;;;2.00;99.90;;;;;;5003566;28;20206;-75
2022/03/26 05:05:21;;;;;;;45.47;22.30;;;2.00;99.90;;;;;;5010902;28;20637;-76
2022/03/26 05:07:46;;;;;;;41.70;21.73;;;2.00;99.90;;;;;;4998470;28;20221;-76
2022/03/26 05:10:16;;;;;;;39.03;19.80;;;2.00;99.90;;;;;;5011386;28;20298;-76
2022/03/26 05:12:42;;;;;;;44.47;21.57;;;1.90;99.90;;;;;;4996007;28;20208;-75
2022/03/26 05:15:08;;;;;;;48.53;22.23;;;1.90;99.90;;;;;;4990958;28;20417;-74
2022/03/26 05:17:34;;;;;;;39.00;21.00;;;1.90;99.90;;;;;;5003474;28;20462;-76
2022/03/26 05:20:00;;;;;;;35.87;20.20;;;1.90;99.90;;;;;;5010310;28;20410;-75
2022/03/26 05:22:25;;;;;;;38.43;20.07;;;1.90;99.90;;;;;;5004824;28;20599;-74
2022/03/26 05:24:53;;;;;;;45.23;20.67;;;1.90;99.90;;;;;;4991232;28;20196;-76
2022/03/26 05:27:18;;;;;;;38.83;20.40;;;1.90;99.90;;;;;;4992774;28;20184;-75
2022/03/26 05:29:46;;;;;;;51.27;22.23;;;2.00;99.90;;;;;;5007125;28;20810;-76
2022/03/26 05:32:15;;;;;;;33.13;20.50;;;2.00;99.90;;;;;;5007525;28;20658;-76
2022/03/26 05:34:41;;;;;;;42.83;21.60;;;2.10;99.90;;;;;;5007009;28;20404;-76
2022/03/26 05:37:06;;;;;;;37.77;20.63;;;2.10;99.90;;;;;;5010915;28;20472;-75
2022/03/26 05:39:32;;;;;;;39.90;21.13;;;2.20;99.90;;;;;;4995736;28;20571;-75
2022/03/26 05:41:58;;;;;;;40.10;19.23;;;2.20;99.90;;;;;;4991160;28;20192;-75
2022/03/26 05:44:24;;;;;;;49.07;21.97;;;2.20;99.90;;;;;;5001133;28;20193;-75
2022/03/26 05:46:49;;;;;;;39.57;20.63;;;2.30;99.90;;;;;;5008601;28;20183;-76
2022/03/26 05:49:16;;;;;;;43.00;22.77;;;2.40;99.90;;;;;;5009152;28;20214;-76
2022/03/26 05:51:42;;;;;;;39.60;22.20;;;2.40;99.90;;;;;;5008110;28;20225;-74
2022/03/26 05:54:08;;;;;;;34.60;18.97;;;2.50;99.90;;;;;;5008083;28;20430;-74
2022/03/26 05:56:36;;;;;;;38.07;20.87;;;2.60;99.90;;;;;;5009036;28;20426;-75
2022/03/26 05:59:06;;;;;;;40.20;21.47;;;2.70;99.90;;;;;;5010056;28;20175;-75
2022/03/26 06:01:32;;;;;;;39.00;20.20;;;2.80;99.90;;;;;;5004116;28;20455;-77
2022/03/26 06:03:58;;;;;;;38.53;20.17;;;3.00;99.90;;;;;;5003479;28;20423;-76
2022/03/26 06:06:23;;;;;;;44.23;21.03;;;3.20;99.90;;;;;;5006772;28;20272;-76
2022/03/26 06:08:49;;;;;;;47.03;24.07;;;3.40;99.90;;;;;;5010403;28;20176;-77
2022/03/26 06:11:14;;;;;;;42.60;21.70;;;4.10;99.90;;;;;;5002055;28;20206;-77
2022/03/26 06:13:40;;;;;;;34.20;19.30;;;5.20;99.90;;;;;;5007561;28;20182;-77
2022/03/26 06:16:05;;;;;;;39.13;20.90;;;6.50;99.90;;;;;;5005821;28;20191;-77
2022/03/26 06:18:31;;;;;;;44.60;20.90;;;7.50;99.90;;;;;;5008865;28;20680;-77
2022/03/26 06:20:57;;;;;;;36.03;22.13;;;8.40;99.90;;;;;;5008439;28;20545;-74
2022/03/26 06:23:22;;;;;;;35.20;22.00;;;9.10;99.90;;;;;;5005694;28;20197;-73
2022/03/26 06:25:48;;;;;;;36.67;20.33;;;9.60;99.90;;;;;;5010110;28;20178;-75
2022/03/26 06:28:19;;;;;;;40.10;21.30;;;10.40;99.90;;;;;;5008072;28;20687;-78
2022/03/26 06:30:47;;;;;;;32.23;22.00;;;10.90;99.90;;;;;;4992032;28;20211;-75
2022/03/26 06:33:15;;;;;;;37.10;21.50;;;11.60;99.90;;;;;;5003606;28;20445;-76
2022/03/26 06:35:41;;;;;;;36.10;21.80;;;11.90;99.90;;;;;;5010045;28;20786;-76
2022/03/26 06:38:06;;;;;;;36.97;23.27;;;12.30;99.90;;;;;;5011140;28;20451;-76
2022/03/26 06:40:32;;;;;;;32.27;21.90;;;12.90;99.90;;;;;;5013176;28;20506;-75
2022/03/26 06:42:58;;;;;;;37.40;22.77;;;13.40;99.90;;;;;;4990234;28;20184;-76
2022/03/26 06:45:23;;;;;;;35.30;23.17;;;13.60;99.90;;;;;;5008645;28;20702;-75
2022/03/26 06:47:49;;;;;;;31.63;22.70;;;14.00;99.90;;;;;;5009655;28;20551;-76
2022/03/26 06:50:15;;;;;;;39.97;23.40;;;14.30;99.90;;;;;;5012197;28;20409;-76
2022/03/26 06:52:40;;;;;;;34.33;23.70;;;14.50;99.90;;;;;;4995826;28;20230;-76
2022/03/26 06:55:07;;;;;;;38.03;25.30;;;15.00;99.90;;;;;;5007942;28;20605;-76
2022/03/26 06:57:33;;;;;;;39.80;25.40;;;15.30;99.90;;;;;;5013491;28;20181;-75
2022/03/26 06:59:58;;;;;;;35.13;24.50;;;15.80;99.90;;;;;;5011473;28;20820;-76
2022/03/26 07:02:24;;;;;;;39.60;26.73;;;16.00;99.90;;;;;;5010561;28;20690;-71
2022/03/26 07:04:49;;;;;;;42.00;27.03;;;16.30;99.90;;;;;;5010913;28;20194;-72
2022/03/26 07:07:15;;;;;;;38.50;25.70;;;16.40;99.90;;;;;;5009253;28;20328;-73
2022/03/26 07:09:41;;;;;;;43.00;25.93;;;16.60;99.80;;;;;;4994638;28;20256;-72
2022/03/26 07:12:07;;;;;;;45.43;26.53;;;16.60;99.20;;;;;;5012475;28;20718;-72
2022/03/26 07:14:33;;;;;;;42.60;26.23;;;16.30;98.80;;;;;;5011625;28;20430;-73
2022/03/26 07:16:58;;;;;;;40.10;26.33;;;16.00;98.90;;;;;;5005561;28;20464;-74
2022/03/26 07:19:24;;;;;;;53.70;28.37;;;15.60;99.40;;;;;;5009964;28;20190;-72
2022/03/26 07:21:50;;;;;;;46.67;27.73;;;15.40;99.70;;;;;;5014300;28;20762;-72
2022/03/26 07:24:15;;;;;;;42.73;27.43;;;15.30;99.90;;;;;;5011890;28;20182;-73
2022/03/26 07:26:41;;;;;;;40.87;26.03;;;15.00;98.90;;;;;;4992510;28;20210;-74
2022/03/26 07:29:08;;;;;;;53.50;27.40;;;14.70;99.90;;;;;;5011128;28;20193;-74
2022/03/26 07:31:34;;;;;;;41.77;25.43;;;14.70;99.90;;;;;;5008895;28;20218;-74
2022/03/26 07:34:00;;;;;;;43.60;25.53;;;15.00;99.80;;;;;;5007561;28;20517;-73
2022/03/26 07:36:25;;;;;;;43.80;28.73;;;15.00;99.70;;;;;;5011209;28;20167;-75
2022/03/26 07:38:51;;;;;;;44.97;25.17;;;15.10;99.00;;;;;;5009908;28;20175;-73
2022/03/26 07:41:17;;;;;;;49.47;26.37;;;15.10;98.60;;;;;;4994384;28;20469;-74
2022/03/26 07:43:43;;;;;;;41.10;26.80;;;15.20;99.20;;;;;;5010651;28;20584;-73
2022/03/26 07:46:08;;;;;;;38.80;25.73;;;15.30;99.50;;;;;;5012146;28;20410;-74
2022/03/26 07:48:34;;;;;;;47.83;26.33;;;15.30;98.40;;;;;;4988584;28;20183;-74
2022/03/26 07:51:00;;;;;;;46.37;26.43;;;15.40;98.00;;;;;;5005746;28;20297;-74
2022/03/26 07:53:27;;;;;;;47.87;26.77;;;15.70;98.80;;;;;;5010006;28;20269;-74
2022/03/26 07:55:53;;;;;;;40.57;25.60;;;15.60;98.20;;;;;;5012476;28;20170;-74
2022/03/26 07:58:19;;;;;;;44.13;26.60;;;15.70;96.40;;;;;;5009449;28;20901;-74
2022/03/26 08:00:45;;;;;;;44.30;26.97;;;15.80;96.60;;;;;;5007443;28;20198;-74
2022/03/26 08:03:13;;;;;;;47.27;25.50;;;15.80;96.20;;;;;;5007225;28;20254;-73
2022/03/26 08:05:39;;;;;;;45.67;26.67;;;15.90;96.00;;;;;;5012654;28;20678;-74
2022/03/26 08:08:04;;;;;;;41.80;24.17;;;16.00;97.40;;;;;;5011351;28;20504;-73
2022/03/26 08:10:30;;;;;;;45.10;25.60;;;16.10;96.30;;;;;;5006502;28;20218;-74
2022/03/26 08:12:56;;;;;;;44.70;27.20;;;15.80;95.70;;;;;;5011156;28;20472;-74
2022/03/26 08:15:21;;;;;;;47.73;24.67;;;15.90;96.30;;;;;;5010190;28;20246;-69
2022/03/26 08:17:47;;;;;;;49.73;26.10;;;16.20;96.50;;;;;;5009566;28;20279;-71
2022/03/26 08:20:12;;;;;;;42.13;26.17;;;16.20;94.70;;;;;;5008452;28;20194;-72
2022/03/26 08:22:41;;;;;;;46.23;27.43;;;16.20;94.90;;;;;;4998761;28;20207;-74
2022/03/26 08:25:09;;;;;;;55.10;27.67;;;16.10;95.50;;;;;;4994651;28;20194;-74
2022/03/26 08:27:36;;;;;;;41.07;25.70;;;16.20;95.60;;;;;;5011731;28;20419;-74
2022/03/26 08:30:02;;;;;;;51.57;26.00;;;16.40;95.00;;;;;;4992092;28;20504;-71
2022/03/26 08:32:28;;;;;;;41.23;26.43;;;16.90;95.00;;;;;;5004325;28;20485;-73
2022/03/26 08:34:53;;;;;;;42.57;25.30;;;17.00;93.90;;;;;;5006990;28;20958;-74
2022/03/26 08:37:19;;;;;;;39.53;24.67;;;17.30;93.30;;;;;;5009952;28;20194;-75
2022/03/26 08:39:44;;;;;;;53.10;26.93;;;17.40;92.10;;;;;;5011425;28;20186;-74
2022/03/26 08:42:10;;;;;;;47.80;26.40;;;17.70;93.90;;;;;;5006827;28;20737;-74
2022/03/26 08:44:35;;;;;;;43.63;25.93;;;17.50;91.90;;;;;;5010051;28;20179;-75
2022/03/26 08:47:04;;;;;;;46.27;26.83;;;17.20;91.20;;;;;;5007460;28;20282;-74
2022/03/26 08:49:30;;;;;;;39.43;23.27;;;17.30;92.90;;;;;;4993409;28;20272;-73
2022/03/26 08:51:56;;;;;;;53.80;26.20;;;17.70;91.60;;;;;;4992539;28;20457;-74
2022/03/26 08:54:21;;;;;;;45.30;25.67;;;17.90;91.30;;;;;;5007195;28;20247;-71
2022/03/26 08:56:47;;;;;;;40.90;24.63;;;18.00;90.70;;;;;;5010130;28;20194;-73
2022/03/26 08:59:13;;;;;;;38.50;25.17;;;18.20;90.80;;;;;;5010493;28;20197;-74
2022/03/26 09:01:39;;;;;;;43.33;25.63;;;18.40;90.90;;;;;;5009721;28;20198;-74
2022/03/26 09:04:04;;;;;;;49.13;25.67;;;18.50;90.80;;;;;;5004271;28;20511;-74
2022/03/26 09:06:30;;;;;;;52.60;27.53;;;18.70;89.80;;;;;;5010015;28;20191;-74
2022/03/26 09:08:55;;;;;;;46.60;27.00;;;19.00;89.90;;;;;;5008272;28;20191;-74
2022/03/26 09:11:21;;;;;;;44.50;25.80;;;19.00;86.10;;;;;;5009486;28;20209;-72
2022/03/26 09:13:46;;;;;;;39.40;26.20;;;19.50;86.90;;;;;;5009779;28;20194;-73
2022/03/26 09:16:12;;;;;;;48.47;26.60;;;19.90;89.20;;;;;;5010641;28;20478;-73
2022/03/26 09:18:38;;;;;;;48.23;25.70;;;19.80;83.40;;;;;;5007083;28;20179;-73
2022/03/26 09:21:04;;;;;;;47.30;26.93;;;19.40;83.10;;;;;;5009453;28;20201;-72
2022/03/26 09:23:30;;;;;;;46.37;28.57;;;19.40;82.10;;;;;;5010114;28;20198;-72
2022/03/26 09:25:56;;;;;;;55.00;27.73;;;19.20;81.60;;;;;;5006251;28;20768;-72
2022/03/26 09:28:35;;;;;;;53.23;28.13;;;19.10;83.50;;;;;;5010571;28;20185;-73
2022/03/26 09:31:21;;;;;;;47.43;27.87;;;18.90;82.80;;;;;;5006035;28;20328;-75
2022/03/26 09:33:57;;;;;;;51.20;26.03;;;19.10;84.40;;;;;;5004316;28;20454;-75
2022/03/26 09:39:46;;;;;;;46.97;28.60;;;19.80;83.50;;;;;;4970419;28;20414;-75
2022/03/26 09:45:26;;;;;;;52.40;29.97;;;20.30;82.80;;;;;;5010412;28;20409;-73
2022/03/26 09:48:20;;;;;;;47.10;28.23;;;20.60;80.90;;;;;;5008926;28;20438;-75
2022/03/26 09:51:15;;;;;;;46.03;27.20;;;20.20;79.50;;;;;;4993738;28;20501;-75
2022/03/26 09:54:26;;;;;;;43.03;25.97;;;20.20;79.90;;;;;;4992582;28;21004;-75
2022/03/26 09:57:18;;;;;;;41.47;26.87;;;20.80;80.70;;;;;;5002035;28;20480;-77
2022/03/26 09:59:49;;;;;;;48.80;27.50;;;20.70;78.20;;;;;;5014028;28;20437;-76
2022/03/26 10:02:25;;;;;;;45.37;28.73;;;20.10;79.00;;;;;;4987209;28;20461;-76
2022/03/26 10:05:12;;;;;;;49.83;28.63;;;20.00;80.40;;;;;;5018004;28;20836;-76
2022/03/26 10:07:43;;;;;;;45.90;27.70;;;20.40;79.10;;;;;;5016598;28;20493;-76
2022/03/26 10:11:01;;;;;;;45.77;28.40;;;20.30;81.60;;;;;;5013253;28;20480;-74
2022/03/26 10:14:07;;;;;;;44.83;26.87;;;20.10;78.80;;;;;;4921786;29;20447;-76
2022/03/26 10:16:54;;;;;;;45.25;30.88;;;20.10;77.20;;;;;;4952639;28;20427;-75
2022/03/26 10:22:58;;;;;;;44.77;27.40;;;20.10;78.40;;;;;;4983532;28;20433;-74
2022/03/26 10:25:58;;;;;;;40.37;26.23;;;20.40;77.30;;;;;;5014389;28;20429;-76
2022/03/26 10:29:12;;;;;;;47.23;27.60;;;20.40;78.60;;;;;;5006995;28;20506;-74
2022/03/26 10:34:43;;;;;;;52.57;29.67;;;21.40;78.60;;;;;;5005187;28;20543;-74
2022/03/26 10:37:58;;;;;;;51.87;29.33;;;21.40;77.10;;;;;;4996176;28;20425;-76
2022/03/26 10:41:09;;;;;;;41.67;26.77;;;21.80;77.90;;;;;;5011433;28;20865;-75
2022/03/26 10:44:20;;;;;;;47.50;28.50;;;22.20;76.20;;;;;;4965595;28;20740;-75
2022/03/26 10:47:28;;;;;;;53.53;30.13;;;21.90;74.50;;;;;;4992075;28;20433;-76
2022/03/26 10:53:49;;;;;;;50.77;28.80;;;21.40;75.90;;;;;;4996341;28;20434;-74
2022/03/26 10:59:46;;;;;;;56.07;32.27;;;22.10;76.00;;;;;;5013144;28;20638;-73
2022/03/26 11:02:11;;;;;;;44.63;27.00;;;21.80;74.10;;;;;;5006324;28;20516;-72
2022/03/26 11:04:37;;;;;;;45.73;27.20;;;21.80;74.20;;;;;;5009974;28;20197;-73
2022/03/26 11:07:03;;;;;;;44.93;26.87;;;22.00;75.80;;;;;;5011452;28;20588;-73
2022/03/26 11:09:28;;;;;;;50.43;27.47;;;22.50;73.40;;;;;;5014545;28;20220;-72
2022/03/26 11:11:58;;;;;;;46.57;26.73;;;22.50;72.00;;;;;;5012383;28;20568;-73
2022/03/26 11:14:43;;;;;;;49.00;26.97;;;22.50;73.40;;;;;;5009118;28;20237;-73
2022/03/26 11:17:19;;;;;;;44.03;27.70;;;22.50;70.80;;;;;;5007962;28;20460;-72
2022/03/26 11:20:12;;;;;;;40.80;26.70;;;22.30;71.40;;;;;;5012621;28;20425;-74
2022/03/26 11:22:57;;;;;;;41.07;25.37;;;22.30;70.00;;;;;;5009135;28;20990;-74
2022/03/26 11:25:41;;;;;;;40.83;25.27;;;22.00;70.70;;;;;;5009308;28;20438;-72
2022/03/26 11:28:23;;;;;;;38.60;25.13;;;21.90;69.70;;;;;;5011122;28;20489;-72
2022/03/26 11:31:07;;;;;;;35.53;22.50;;;22.30;67.90;;;;;;5010744;28;20475;-75
2022/03/26 11:33:35;;;;;;;33.60;22.27;;;22.20;68.00;;;;;;5004472;28;20462;-75
2022/03/26 11:36:03;;;;;;;32.90;22.00;;;22.20;64.10;;;;;;5009695;28;20424;-76
2022/03/26 11:38:30;;;;;;;36.53;24.03;;;22.20;62.90;;;;;;5009466;28;20468;-76
2022/03/26 11:41:06;;;;;;;34.83;22.23;;;22.00;61.60;;;;;;5011897;28;20532;-75
2022/03/26 11:43:44;;;;;;;37.03;23.30;;;21.70;60.30;;;;;;5010691;28;20452;-75
2022/03/26 11:51:58;;;;;;;35.23;21.90;;;21.20;61.70;;;;;;5009792;28;20479;-76
2022/03/26 11:54:24;;;;;;;35.70;20.30;;;21.20;63.40;;;;;;5011235;28;20414;-76
2022/03/26 11:57:14;;;;;;;32.47;22.83;;;21.20;62.30;;;;;;5008009;28;20528;-76
2022/03/26 11:59:41;;;;;;;31.40;21.37;;;21.10;63.10;;;;;;4994902;28;20237;-76
2022/03/26 12:02:20;;;;;;;36.50;21.93;;;21.10;65.20;;;;;;5007957;28;20882;-76
2022/03/26 12:04:56;;;;;;;33.50;22.70;;;20.70;64.00;;;;;;5011347;28;20456;-76
2022/03/26 12:07:26;;;;;;;42.60;21.73;;;20.70;64.40;;;;;;5007380;28;20433;-76
2022/03/26 12:10:10;;;;;;;35.20;22.03;;;21.10;65.40;;;;;;5011638;28;20461;-76
2022/03/26 12:12:58;;;;;;;38.97;20.77;;;21.10;63.60;;;;;;5011206;28;20453;-76
2022/03/26 12:15:26;;;;;;;32.90;20.90;;;21.10;64.50;;;;;;5011537;28;20421;-76
2022/03/26 12:18:14;;;;;;;38.20;21.40;;;21.00;63.70;;;;;;5005004;28;20470;-76
2022/03/26 12:20:47;;;;;;;33.47;22.43;;;20.70;63.40;;;;;;5011575;28;20500;-77
2022/03/26 12:23:23;;;;;;;33.30;20.60;;;20.70;64.00;;;;;;5009610;28;20456;-76
2022/03/26 12:25:59;;;;;;;32.80;20.03;;;20.60;64.80;;;;;;5011690;28;20447;-75
2022/03/26 12:28:24;;;;;;;33.20;20.93;;;20.40;65.00;;;;;;5007711;28;20466;-76
2022/03/26 12:30:53;;;;;;;32.70;19.33;;;20.20;63.90;;;;;;5010471;28;20524;-76
2022/03/26 12:33:19;;;;;;;29.10;20.33;;;20.20;64.70;;;;;;5003362;28;20202;-76
2022/03/26 12:35:47;;;;;;;29.33;20.00;;;20.50;66.80;;;;;;4992916;28;20422;-76
2022/03/26 12:38:13;;;;;;;31.50;20.57;;;20.50;64.20;;;;;;5005456;28;20483;-75
2022/03/26 12:40:49;;;;;;;28.13;18.63;;;20.60;66.40;;;;;;4931018;28;20426;-75
2022/03/26 12:43:14;;;;;;;31.87;20.60;;;20.50;65.50;;;;;;4923274;28;20919;-74
2022/03/26 12:45:40;;;;;;;35.47;20.10;;;20.30;63.80;;;;;;4944732;28;20525;-74
2022/03/26 12:48:11;;;;;;;36.03;20.20;;;20.10;64.60;;;;;;4942961;28;20382;-74
2022/03/26 12:50:43;;;;;;;43.43;26.63;;;19.80;63.80;;;;;;4931079;28;20428;-77
2022/03/26 12:53:16;;;;;;;34.00;19.23;;;19.80;64.90;;;;;;4880900;28;20851;-77
2022/03/26 12:55:52;;;;;;;33.57;19.00;;;19.80;65.60;;;;;;4903862;28;20719;-79
2022/03/26 13:01:06;;;;;;;26.57;18.40;;;19.50;61.00;;;;;;4915813;28;20942;-78
2022/03/26 13:03:32;;;;;;;30.47;17.73;;;19.50;62.30;;;;;;4883032;28;20794;-78
2022/03/26 13:05:58;;;;;;;29.13;16.63;;;19.50;62.20;;;;;;4884108;28;21141;-78
2022/03/26 13:08:26;;;;;;;26.80;16.87;;;19.60;62.90;;;;;;4901889;28;20799;-77
2022/03/26 13:10:52;;;;;;;24.97;17.20;;;19.50;61.20;;;;;;4903822;28;20240;-77
2022/03/26 13:13:20;;;;;;;24.07;15.60;;;19.70;61.80;;;;;;4885274;28;20995;-77
2022/03/26 13:16:00;;;;;;;24.37;16.47;;;19.60;59.60;;;;;;4882573;28;20723;-77
2022/03/26 13:18:26;;;;;;;25.73;16.50;;;19.40;59.80;;;;;;4896048;28;20854;-77
2022/03/26 13:20:52;;;;;;;28.50;16.90;;;19.60;61.10;;;;;;4888415;28;20768;-77
2022/03/26 13:23:18;;;;;;;26.90;17.10;;;19.40;59.50;;;;;;4903562;28;20742;-77
2022/03/26 13:25:45;;;;;;;26.57;17.03;;;19.50;59.70;;;;;;4887365;28;20612;-77
2022/03/26 13:28:23;;;;;;;31.67;15.90;;;19.50;60.00;;;;;;4902755;28;21034;-77
2022/03/26 13:30:51;;;;;;;25.83;17.00;;;19.40;59.30;;;;;;4887479;28;20616;-78
2022/03/26 13:33:28;;;;;;;28.47;17.10;;;19.30;60.10;;;;;;4890353;28;21155;-78
2022/03/26 13:36:01;;;;;;;33.13;16.37;;;19.20;60.80;;;;;;4889490;28;20429;-78
2022/03/26 13:38:35;;;;;;;26.80;16.40;;;19.10;59.50;;;;;;4889622;28;20663;-77
2022/03/26 13:41:19;;;;;;;27.67;16.27;;;19.10;60.20;;;;;;4890082;28;21156;-78
2022/03/26 13:43:47;;;;;;;24.40;15.33;;;19.10;59.40;;;;;;4889755;28;20630;-78
2022/03/26 13:46:14;;;;;;;26.47;17.00;;;19.10;60.00;;;;;;4918110;28;20751;-77
2022/03/26 13:48:55;;;;;;;24.67;15.93;;;19.10;59.80;;;;;;4891449;28;20810;-77
2022/03/26 13:51:32;;;;;;;30.30;16.17;;;19.00;59.70;;;;;;4893131;28;20838;-76
2022/03/26 13:54:03;;;;;;;27.90;15.57;;;19.10;61.10;;;;;;4894185;28;20594;-77
2022/03/26 13:56:35;;;;;;;26.37;15.27;;;19.00;59.40;;;;;;4894470;28;20717;-77
2022/03/26 13:59:04;;;;;;;23.13;15.70;;;19.00;59.60;;;;;;4893895;28;21186;-76
2022/03/26 14:01:44;;;;;;;24.37;14.10;;;18.90;59.30;;;;;;4893576;28;20641;-77
2022/03/26 14:04:28;;;;;;;24.80;15.87;;;18.90;59.00;;;;;;4893611;28;20968;-77
2022/03/26 14:06:54;;;;;;;24.27;14.90;;;19.00;59.30;;;;;;4894914;28;20899;-76
2022/03/26 14:09:29;;;;;;;24.00;16.17;;;19.00;57.90;;;;;;4919193;28;21154;-76
2022/03/26 14:11:55;;;;;;;26.30;15.60;;;19.00;58.50;;;;;;4893612;28;20780;-77
2022/03/26 14:14:21;;;;;;;24.43;14.27;;;19.00;58.10;;;;;;4918357;28;21179;-77
2022/03/26 14:16:47;;;;;;;31.77;15.13;;;19.00;58.50;;;;;;4969666;28;20926;-75
2022/03/26 14:19:13;;;;;;;24.60;14.90;;;18.90;58.10;;;;;;4996434;28;20420;-74
2022/03/26 14:21:38;;;;;;;26.10;15.43;;;18.90;58.50;;;;;;4996047;28;20191;-74
2022/03/26 14:24:05;;;;;;;21.87;13.60;;;18.80;57.90;;;;;;4995805;28;20179;-74
2022/03/26 14:26:30;;;;;;;26.83;13.90;;;18.80;58.00;;;;;;5014040;28;20182;-74
2022/03/26 14:28:56;;;;;;;24.60;14.80;;;18.90;58.00;;;;;;4996595;28;20431;-74
2022/03/26 14:31:21;;;;;;;22.10;14.20;;;18.90;58.70;;;;;;4995274;28;20249;-74
2022/03/26 14:33:47;;;;;;;23.73;14.20;;;19.00;59.10;;;;;;5013561;28;20187;-74
2022/03/26 14:36:13;;;;;;;22.50;15.70;;;19.00;58.00;;;;;;5013644;28;20186;-74
2022/03/26 14:38:39;;;;;;;23.63;14.80;;;18.90;57.30;;;;;;5014801;28;20187;-74
2022/03/26 14:41:07;;;;;;;20.87;13.70;;;18.90;58.40;;;;;;4996454;28;20225;-74